createdAt,value
2022-11-21T00:00:32.370Z,5.14
2022-11-21T00:01:32.436Z,5.14
2022-11-21T00:02:32.417Z,5.14
2022-11-21T00:03:32.426Z,5
2022-11-21T00:04:32.622Z,5.11
2022-11-21T00:05:32.452Z,5.11
2022-11-21T00:06:31.941Z,5.11
2022-11-21T00:07:32.353Z,5.12
2022-11-21T00:08:31.974Z,5.14
2022-11-21T00:09:31.991Z,5.14
2022-11-21T00:10:32.012Z,5.08
2022-11-21T00:11:32.009Z,5.1
2022-11-21T00:12:32.296Z,5.12
2022-11-21T00:13:32.309Z,5.11
2022-11-21T00:14:32.641Z,5.14
2022-11-21T00:15:32.328Z,5.08
2022-11-21T00:16:32.338Z,5.08
2022-11-21T00:17:32.724Z,5.15
2022-11-21T00:18:32.641Z,5.17
2022-11-21T00:19:32.664Z,5.08
2022-11-21T00:20:32.406Z,5.1
2022-11-21T00:21:32.673Z,5.07
2022-11-21T00:22:32.454Z,5.14
2022-11-21T00:23:32.704Z,5.12
2022-11-21T00:24:33.195Z,5.1
2022-11-21T00:25:32.742Z,5.11
2022-11-21T00:26:32.501Z,5.08
2022-11-21T00:27:32.497Z,5.12
2022-11-21T00:28:32.516Z,5.04
2022-11-21T00:29:32.530Z,5.05
2022-11-21T00:30:32.799Z,5.1
2022-11-21T00:31:32.557Z,5.15
2022-11-21T00:32:32.314Z,5.12
2022-11-21T00:33:32.840Z,5.07
2022-11-21T00:34:32.894Z,5.07
2022-11-21T00:35:32.870Z,5.1
2022-11-21T00:36:32.884Z,5.14
2022-11-21T00:37:32.906Z,5.14
2022-11-21T00:38:32.654Z,5.07
2022-11-21T00:39:32.664Z,5.17
2022-11-21T00:40:32.686Z,5.1
2022-11-21T00:41:32.966Z,5.12
2022-11-21T00:42:32.647Z,5.08
2022-11-21T00:43:32.724Z,5.17
2022-11-21T00:44:33.393Z,5.15
2022-11-21T00:45:33.014Z,5.15
2022-11-21T00:46:32.795Z,5.21
2022-11-21T00:47:32.780Z,5.11
2022-11-21T00:48:32.803Z,5.14
2022-11-21T00:49:33.075Z,5.14
2022-11-21T00:50:33.090Z,5.12
2022-11-21T00:51:33.093Z,5.17
2022-11-21T00:52:32.849Z,5.15
2022-11-21T00:53:33.172Z,5.14
2022-11-21T00:54:33.628Z,5.15
2022-11-21T00:55:33.141Z,5.18
2022-11-21T00:56:32.910Z,5.11
2022-11-21T00:57:32.655Z,5.17
2022-11-21T00:58:32.943Z,5.17
2022-11-21T00:59:32.687Z,5.12
2022-11-21T01:00:33.176Z,5.15
2022-11-21T01:01:33.078Z,5.08
2022-11-21T01:02:33.306Z,5.11
2022-11-21T01:03:33.012Z,5.17
2022-11-21T01:04:33.392Z,5.1
2022-11-21T01:05:33.290Z,5.1
2022-11-21T01:06:33.047Z,5.11
2022-11-21T01:07:33.488Z,5.07
2022-11-21T01:08:33.082Z,5.17
2022-11-21T01:09:33.136Z,5.11
2022-11-21T01:10:33.367Z,5.14
2022-11-21T01:11:33.118Z,5.15
2022-11-21T01:12:33.467Z,5.11
2022-11-21T01:13:33.146Z,5.15
2022-11-21T01:14:33.825Z,5.14
2022-11-21T01:15:33.174Z,5.17
2022-11-21T01:16:33.191Z,5.08
2022-11-21T01:17:33.466Z,5.12
2022-11-21T01:18:33.481Z,5.14
2022-11-21T01:19:33.495Z,5.15
2022-11-21T01:20:32.984Z,5.14
2022-11-21T01:21:33.511Z,5.11
2022-11-21T01:22:33.274Z,5.14
2022-11-21T01:23:33.557Z,5.12
2022-11-21T01:24:33.429Z,5.1
2022-11-21T01:25:33.571Z,5.12
2022-11-21T01:26:33.328Z,5.15
2022-11-21T01:27:33.600Z,5.17
2022-11-21T01:28:33.684Z,5.14
2022-11-21T01:29:33.630Z,5.07
2022-11-21T01:30:33.636Z,5.14
2022-11-21T01:31:33.401Z,5.07
2022-11-21T01:32:33.673Z,5.07
2022-11-21T01:33:33.680Z,5.12
2022-11-21T01:34:34.023Z,5.17
2022-11-21T01:35:33.450Z,5.14
2022-11-21T01:36:33.737Z,5.12
2022-11-21T01:37:33.485Z,5.18
2022-11-21T01:38:33.758Z,5.1
2022-11-21T01:39:33.771Z,5.17
2022-11-21T01:40:33.789Z,5.18
2022-11-21T01:41:33.618Z,5.11
2022-11-21T01:42:34.009Z,5.17
2022-11-21T01:43:33.576Z,5.17
2022-11-21T01:44:34.270Z,5.12
2022-11-21T01:45:33.851Z,5.12
2022-11-21T01:46:33.871Z,5.18
2022-11-21T01:47:33.887Z,5.17
2022-11-21T01:48:33.639Z,5.11
2022-11-21T01:49:33.915Z,5.11
2022-11-21T01:50:33.928Z,5.08
2022-11-21T01:51:33.674Z,5.15
2022-11-21T01:52:33.877Z,5.12
2022-11-21T01:53:33.716Z,5.12
2022-11-21T01:54:34.361Z,5.1
2022-11-21T01:55:33.732Z,5.17
2022-11-21T01:56:33.743Z,5.1
2022-11-21T01:57:33.510Z,5.18
2022-11-21T01:58:34.039Z,5.1
2022-11-21T01:59:34.045Z,5.14
2022-11-21T02:00:34.186Z,5.18
2022-11-21T02:01:34.298Z,5.17
2022-11-21T02:02:34.089Z,5.08
2022-11-21T02:03:33.859Z,5.17
2022-11-21T02:04:34.039Z,5.17
2022-11-21T02:05:34.143Z,5.14
2022-11-21T02:06:33.897Z,5.1
2022-11-21T02:07:34.127Z,5.12
2022-11-21T02:08:33.934Z,5.12
2022-11-21T02:09:34.184Z,5.1
2022-11-21T02:10:33.950Z,5.11
2022-11-21T02:11:34.247Z,5.12
2022-11-21T02:12:34.482Z,5.12
2022-11-21T02:13:33.735Z,5.14
2022-11-21T02:14:34.358Z,5.11
2022-11-21T02:15:34.278Z,5.12
2022-11-21T02:16:34.371Z,5.12
2022-11-21T02:17:33.800Z,5.12
2022-11-21T02:18:34.325Z,5.12
2022-11-21T02:19:34.338Z,5.15
2022-11-21T02:20:34.360Z,5.17
2022-11-21T02:21:34.106Z,5.14
2022-11-21T02:22:34.143Z,5.14
2022-11-21T02:23:33.899Z,5.14
2022-11-21T02:24:34.870Z,5.15
2022-11-21T02:25:34.423Z,5.11
2022-11-21T02:26:34.439Z,5.18
2022-11-21T02:27:34.196Z,5.14
2022-11-21T02:28:34.464Z,5.15
2022-11-21T02:29:34.474Z,5.14
2022-11-21T02:30:34.484Z,5.1
2022-11-21T02:31:34.248Z,5.14
2022-11-21T02:32:34.605Z,5.12
2022-11-21T02:33:34.523Z,5.1
2022-11-21T02:34:34.757Z,5.14
2022-11-21T02:35:34.415Z,5.12
2022-11-21T02:36:34.056Z,5.17
2022-11-21T02:37:34.588Z,5.12
2022-11-21T02:38:34.079Z,5.12
2022-11-21T02:39:34.350Z,5.12
2022-11-21T02:40:34.371Z,5.17
2022-11-21T02:41:34.397Z,5.14
2022-11-21T02:42:34.602Z,5.14
2022-11-21T02:43:34.413Z,5.15
2022-11-21T02:44:34.712Z,5.14
2022-11-21T02:45:34.695Z,5.17
2022-11-21T02:46:34.453Z,5.12
2022-11-21T02:47:34.462Z,5.18
2022-11-21T02:48:34.828Z,5.14
2022-11-21T02:49:34.759Z,5.12
2022-11-21T02:50:34.523Z,5.11
2022-11-21T02:51:34.535Z,5.2
2022-11-21T02:52:34.537Z,5.15
2022-11-21T02:53:34.579Z,5.14
2022-11-21T02:54:35.413Z,5.18
2022-11-21T02:55:34.321Z,5.14
2022-11-21T02:56:35.507Z,5.12
2022-11-21T02:57:34.605Z,5.14
2022-11-21T02:58:34.625Z,5.14
2022-11-21T02:59:34.906Z,5.11
2022-11-21T03:00:34.918Z,5.14
2022-11-21T03:01:34.878Z,5.15
2022-11-21T03:02:34.938Z,5.17
2022-11-21T03:03:34.951Z,5.17
2022-11-21T03:04:35.332Z,5.18
2022-11-21T03:05:35.014Z,5.25
2022-11-21T03:06:34.995Z,5.14
2022-11-21T03:07:35.201Z,5.12
2022-11-21T03:08:34.757Z,5.15
2022-11-21T03:09:35.048Z,5.14
2022-11-21T03:10:35.067Z,5.12
2022-11-21T03:11:35.064Z,5.17
2022-11-21T03:12:34.567Z,5.12
2022-11-21T03:13:34.837Z,5.14
2022-11-21T03:14:35.151Z,5.21
2022-11-21T03:15:35.121Z,5.17
2022-11-21T03:16:35.143Z,5.14
2022-11-21T03:17:34.894Z,5.12
2022-11-21T03:18:34.913Z,5.11
2022-11-21T03:19:35.178Z,5.2
2022-11-21T03:20:35.282Z,5.12
2022-11-21T03:21:35.204Z,5.14
2022-11-21T03:22:34.968Z,5.14
2022-11-21T03:23:35.236Z,5.2
2022-11-21T03:24:35.402Z,5.14
2022-11-21T03:25:35.266Z,5.17
2022-11-21T03:26:35.019Z,5.17
2022-11-21T03:27:35.041Z,5.15
2022-11-21T03:28:35.299Z,5.2
2022-11-21T03:29:35.066Z,5.15
2022-11-21T03:30:35.378Z,5.14
2022-11-21T03:31:35.350Z,5.12
2022-11-21T03:32:35.109Z,5.14
2022-11-21T03:33:35.371Z,5.12
2022-11-21T03:34:35.163Z,5.15
2022-11-21T03:35:35.413Z,5.14
2022-11-21T03:36:35.485Z,5.1
2022-11-21T03:37:35.175Z,5.14
2022-11-21T03:38:34.937Z,5.14
2022-11-21T03:39:35.465Z,5.18
2022-11-21T03:40:34.953Z,5.12
2022-11-21T03:41:34.984Z,5.18
2022-11-21T03:42:35.439Z,5.15
2022-11-21T03:43:35.517Z,5.14
2022-11-21T03:44:35.538Z,5.12
2022-11-21T03:45:35.555Z,5.2
2022-11-21T03:46:35.295Z,5.25
2022-11-21T03:47:35.569Z,5.17
2022-11-21T03:48:35.594Z,5.2
2022-11-21T03:49:35.352Z,5.14
2022-11-21T03:50:35.615Z,5.12
2022-11-21T03:51:35.105Z,5.18
2022-11-21T03:52:35.722Z,5.15
2022-11-21T03:53:35.657Z,5.12
2022-11-21T03:54:35.991Z,5.12
2022-11-21T03:55:35.684Z,5.12
2022-11-21T03:56:35.694Z,5.18
2022-11-21T03:57:35.465Z,5.15
2022-11-21T03:58:35.465Z,5.18
2022-11-21T03:59:35.755Z,5.18
2022-11-21T04:00:35.495Z,5.12
2022-11-21T04:01:41.434Z,5.18
2022-11-21T04:02:35.521Z,5.12
2022-11-21T04:03:35.540Z,5.18
2022-11-21T04:04:35.974Z,5.12
2022-11-21T04:05:35.825Z,5.14
2022-11-21T04:06:35.580Z,5.17
2022-11-21T04:07:35.764Z,5.17
2022-11-21T04:08:35.948Z,5.2
2022-11-21T04:09:35.877Z,5.14
2022-11-21T04:10:35.636Z,5.17
2022-11-21T04:11:35.912Z,5.12
2022-11-21T04:12:35.913Z,5.2
2022-11-21T04:13:35.695Z,5.2
2022-11-21T04:14:35.957Z,5.14
2022-11-21T04:15:35.713Z,5.12
2022-11-21T04:16:35.719Z,5.2
2022-11-21T04:17:35.734Z,5.15
2022-11-21T04:18:35.745Z,5.12
2022-11-21T04:19:36.025Z,5.17
2022-11-21T04:20:36.043Z,5.12
2022-11-21T04:21:36.052Z,5.17
2022-11-21T04:22:36.065Z,5.2
2022-11-21T04:23:36.076Z,5.14
2022-11-21T04:24:36.328Z,5.18
2022-11-21T04:25:36.105Z,5.12
2022-11-21T04:26:35.961Z,5.15
2022-11-21T04:27:35.869Z,5.11
2022-11-21T04:28:36.152Z,5.15
2022-11-21T04:29:35.904Z,5.14
2022-11-21T04:30:35.916Z,5.18
2022-11-21T04:31:35.660Z,5.14
2022-11-21T04:32:36.198Z,5.2
2022-11-21T04:33:35.954Z,5.12
2022-11-21T04:34:36.093Z,5.17
2022-11-21T04:35:36.240Z,5.12
2022-11-21T04:36:36.206Z,5.18
2022-11-21T04:37:36.280Z,5.18
2022-11-21T04:38:36.280Z,5.17
2022-11-21T04:39:36.036Z,5.2
2022-11-21T04:40:36.384Z,5.17
2022-11-21T04:41:36.332Z,5.21
2022-11-21T04:42:36.184Z,5.18
2022-11-21T04:43:36.360Z,5.18
2022-11-21T04:44:36.121Z,5.18
2022-11-21T04:45:36.385Z,5.17
2022-11-21T04:46:36.137Z,5.21
2022-11-21T04:47:36.157Z,5.21
2022-11-21T04:48:36.426Z,5.18
2022-11-21T04:49:36.448Z,5.21
2022-11-21T04:50:36.194Z,5.21
2022-11-21T04:51:36.205Z,5.2
2022-11-21T04:52:36.224Z,5.17
2022-11-21T04:53:43.013Z,5.25
2022-11-21T04:54:36.391Z,5.21
2022-11-21T04:55:36.270Z,5.23
2022-11-21T04:56:36.616Z,5.2
2022-11-21T04:57:36.290Z,5.18
2022-11-21T04:58:36.582Z,5.2
2022-11-21T04:59:36.324Z,5.21
2022-11-21T05:00:36.349Z,5.15
2022-11-21T05:01:36.746Z,5.2
2022-11-21T05:02:36.631Z,5.14
2022-11-21T05:03:36.634Z,5.2
2022-11-21T05:04:36.137Z,5.23
2022-11-21T05:05:36.679Z,5.21
2022-11-21T05:06:36.430Z,5.21
2022-11-21T05:07:36.603Z,5.26
2022-11-21T05:08:36.192Z,5.23
2022-11-21T05:09:36.460Z,5.23
2022-11-21T05:10:36.742Z,5.2
2022-11-21T05:11:36.762Z,5.26
2022-11-21T05:12:36.854Z,5.26
2022-11-21T05:13:36.532Z,5.25
2022-11-21T05:14:36.543Z,5.28
2022-11-21T05:15:36.552Z,5.25
2022-11-21T05:16:36.830Z,5.25
2022-11-21T05:17:36.591Z,5.26
2022-11-21T05:18:36.593Z,5.26
2022-11-21T05:19:36.872Z,5.28
2022-11-21T05:20:41.484Z,5.25
2022-11-21T05:21:36.638Z,5.25
2022-11-21T05:22:36.655Z,5.26
2022-11-21T05:23:36.666Z,5.28
2022-11-21T05:24:36.939Z,5.23
2022-11-21T05:25:36.954Z,5.26
2022-11-21T05:26:36.971Z,5.25
2022-11-21T05:27:36.724Z,5.25
2022-11-21T05:28:37.063Z,5.28
2022-11-21T05:29:36.749Z,5.23
2022-11-21T05:30:37.025Z,5.26
2022-11-21T05:31:36.778Z,5.23
2022-11-21T05:32:37.050Z,5.26
2022-11-21T05:33:37.057Z,5.26
2022-11-21T05:34:37.081Z,5.26
2022-11-21T05:35:43.326Z,5.32
2022-11-21T05:36:37.115Z,5.26
2022-11-21T05:37:36.871Z,5.26
2022-11-21T05:38:37.132Z,5.3
2022-11-21T05:39:37.154Z,5.26
2022-11-21T05:40:37.174Z,5.35
2022-11-21T05:41:36.909Z,5.23
2022-11-21T05:42:37.241Z,5.14
2022-11-21T05:43:36.951Z,5.23
2022-11-21T05:44:37.293Z,5.28
2022-11-21T05:45:36.714Z,5.26
2022-11-21T05:46:36.992Z,5.21
2022-11-21T05:47:37.267Z,5.23
2022-11-21T05:48:37.279Z,5.29
2022-11-21T05:49:37.034Z,5.26
2022-11-21T05:50:37.310Z,5.2
2022-11-21T05:51:37.318Z,5.18
2022-11-21T05:52:37.072Z,5.25
2022-11-21T05:53:37.352Z,5.26
2022-11-21T05:54:37.112Z,5.26
2022-11-21T05:55:37.125Z,5.29
2022-11-21T05:56:37.391Z,5.21
2022-11-21T05:57:37.452Z,5.23
2022-11-21T05:58:37.269Z,5.25
2022-11-21T05:59:37.442Z,5.26
2022-11-21T06:00:37.522Z,5.23
2022-11-21T06:01:37.460Z,5.25
2022-11-21T06:02:37.067Z,5.21
2022-11-21T06:03:37.009Z,5.33
2022-11-21T06:04:37.260Z,5.25
2022-11-21T06:05:37.251Z,5.29
2022-11-21T06:06:37.535Z,5.21
2022-11-21T06:07:37.746Z,5.29
2022-11-21T06:08:37.301Z,5.18
2022-11-21T06:09:37.572Z,5.26
2022-11-21T06:10:37.335Z,5.25
2022-11-21T06:11:37.601Z,5.23
2022-11-21T06:12:37.098Z,5.25
2022-11-21T06:13:37.377Z,5.23
2022-11-21T06:14:37.389Z,5.15
2022-11-21T06:15:37.398Z,5.26
2022-11-21T06:16:37.816Z,5.26
2022-11-21T06:17:37.831Z,5.23
2022-11-21T06:18:37.702Z,5.28
2022-11-21T06:19:37.467Z,5.25
2022-11-21T06:20:37.731Z,5.28
2022-11-21T06:21:37.541Z,5.26
2022-11-21T06:22:37.510Z,5.26
2022-11-21T06:23:37.510Z,5.26
2022-11-21T06:24:37.281Z,5.29
2022-11-21T06:25:37.800Z,5.28
2022-11-21T06:26:37.816Z,5.28
2022-11-21T06:27:37.575Z,5.26
2022-11-21T06:28:37.848Z,5.23
2022-11-21T06:29:37.877Z,5.29
2022-11-21T06:30:37.622Z,5.3
2022-11-21T06:31:37.884Z,5.28
2022-11-21T06:32:38.178Z,5.29
2022-11-21T06:33:37.915Z,5.32
2022-11-21T06:34:37.673Z,5.23
2022-11-21T06:35:37.940Z,5.2
2022-11-21T06:36:37.959Z,5.25
2022-11-21T06:37:37.714Z,5.2
2022-11-21T06:38:37.984Z,5.29
2022-11-21T06:39:37.746Z,5.26
2022-11-21T06:40:38.022Z,5.26
2022-11-21T06:41:38.032Z,5.29
2022-11-21T06:42:37.783Z,5.3
2022-11-21T06:43:38.057Z,5.33
2022-11-21T06:44:38.070Z,5.26
2022-11-21T06:45:37.823Z,5.26
2022-11-21T06:46:37.843Z,5.26
2022-11-21T06:47:37.861Z,5.29
2022-11-21T06:48:38.226Z,5.25
2022-11-21T06:49:38.137Z,5.29
2022-11-21T06:50:38.160Z,5.28
2022-11-21T06:51:38.171Z,5.26
2022-11-21T06:52:38.188Z,5.23
2022-11-21T06:53:38.212Z,5.25
2022-11-21T06:54:38.735Z,5.29
2022-11-21T06:55:38.076Z,5.28
2022-11-21T06:56:37.974Z,5.23
2022-11-21T06:57:38.265Z,5.23
2022-11-21T06:58:38.275Z,5.25
2022-11-21T06:59:38.289Z,5.23
2022-11-21T07:00:38.303Z,5.29
2022-11-21T07:01:38.588Z,5.26
2022-11-21T07:02:38.616Z,5.23
2022-11-21T07:03:38.080Z,5.26
2022-11-21T07:04:38.434Z,5.25
2022-11-21T07:05:38.364Z,5.21
2022-11-21T07:06:38.388Z,5.28
2022-11-21T07:07:38.562Z,5.23
2022-11-21T07:08:38.146Z,5.26
2022-11-21T07:09:39.112Z,5.29
2022-11-21T07:10:38.178Z,5.26
2022-11-21T07:11:38.449Z,5.26
2022-11-21T07:12:38.459Z,5.23
2022-11-21T07:13:38.218Z,5.29
2022-11-21T07:14:38.240Z,5.32
2022-11-21T07:15:38.512Z,5.23
2022-11-21T07:16:38.540Z,5.25
2022-11-21T07:17:38.537Z,5.23
2022-11-21T07:18:38.575Z,5.26
2022-11-21T07:19:44.576Z,5.26
2022-11-21T07:20:38.340Z,5.25
2022-11-21T07:21:38.603Z,5.35
2022-11-21T07:22:38.087Z,5.26
2022-11-21T07:23:38.626Z,5.25
2022-11-21T07:24:38.676Z,5.32
2022-11-21T07:25:41.683Z,5.3
2022-11-21T07:26:38.409Z,5.2
2022-11-21T07:27:38.695Z,5.3
2022-11-21T07:28:38.435Z,5.3
2022-11-21T07:29:38.716Z,5.21
2022-11-21T07:30:38.718Z,5.18
2022-11-21T07:31:38.749Z,5.21
2022-11-21T07:32:38.746Z,5.21
2022-11-21T07:33:38.775Z,5.35
2022-11-21T07:34:38.524Z,5.28
2022-11-21T07:35:38.583Z,5.17
2022-11-21T07:36:38.834Z,5.36
2022-11-21T07:37:38.829Z,5.33
2022-11-21T07:38:38.847Z,5.33
2022-11-21T07:39:38.588Z,5.29
2022-11-21T07:40:38.604Z,5.3
2022-11-21T07:41:38.890Z,5.36
2022-11-21T07:42:38.893Z,5.38
2022-11-21T07:43:38.741Z,5.26
2022-11-21T07:44:38.654Z,5.32
2022-11-21T07:45:38.424Z,5.32
2022-11-21T07:46:38.438Z,5.35
2022-11-21T07:47:38.696Z,5.3
2022-11-21T07:48:38.782Z,5.32
2022-11-21T07:49:38.731Z,5.3
2022-11-21T07:50:39.012Z,5.3
2022-11-21T07:51:38.815Z,5.33
2022-11-21T07:52:39.065Z,5.41
2022-11-21T07:53:38.537Z,5.38
2022-11-21T07:54:39.066Z,5.43
2022-11-21T07:55:45.177Z,5.39
2022-11-21T07:56:38.826Z,5.38
2022-11-21T07:57:38.839Z,5.41
2022-11-21T07:58:38.860Z,5.43
2022-11-21T07:59:39.124Z,5.43
2022-11-21T08:00:39.153Z,5.35
2022-11-21T08:01:45.534Z,5.43
2022-11-21T08:02:39.216Z,5.38
2022-11-21T08:03:39.210Z,5.38
2022-11-21T08:04:39.205Z,5.44
2022-11-21T08:05:38.969Z,5.41
2022-11-21T08:06:38.969Z,5.46
2022-11-21T08:07:39.303Z,5.41
2022-11-21T08:08:39.294Z,5.41
2022-11-21T08:09:44.380Z,5.41
2022-11-21T08:10:39.285Z,5.38
2022-11-21T08:11:39.292Z,5.38
2022-11-21T08:12:39.323Z,5.47
2022-11-21T08:13:39.328Z,5.36
2022-11-21T08:14:39.093Z,5.38
2022-11-21T08:15:39.355Z,5.35
2022-11-21T08:16:39.372Z,5.46
2022-11-21T08:17:39.136Z,5.43
2022-11-21T08:18:39.144Z,5.47
2022-11-21T08:19:39.425Z,5.43
2022-11-21T08:20:38.925Z,5.39
2022-11-21T08:21:39.447Z,5.38
2022-11-21T08:22:39.199Z,5.39
2022-11-21T08:23:39.263Z,5.47
2022-11-21T08:24:39.521Z,5.44
2022-11-21T08:25:39.246Z,5.44
2022-11-21T08:26:38.996Z,5.39
2022-11-21T08:27:39.532Z,5.46
2022-11-21T08:28:39.293Z,5.46
2022-11-21T08:29:39.565Z,5.43
2022-11-21T08:30:39.084Z,5.46
2022-11-21T08:31:39.580Z,5.41
2022-11-21T08:32:39.338Z,5.47
2022-11-21T08:33:39.617Z,5.41
2022-11-21T08:34:39.668Z,5.5
2022-11-21T08:35:39.647Z,5.48
2022-11-21T08:36:39.658Z,5.41
2022-11-21T08:37:39.416Z,5.46
2022-11-21T08:38:39.684Z,5.47
2022-11-21T08:39:39.767Z,5.48
2022-11-21T08:40:39.744Z,5.47
2022-11-21T08:41:39.733Z,5.48
2022-11-21T08:42:39.491Z,5.5
2022-11-21T08:43:39.503Z,5.44
2022-11-21T08:44:39.792Z,5.48
2022-11-21T08:45:39.525Z,5.47
2022-11-21T08:46:39.273Z,5.5
2022-11-21T08:47:39.311Z,5.53
2022-11-21T08:48:39.565Z,5.51
2022-11-21T08:49:39.590Z,5.5
2022-11-21T08:50:39.607Z,5.41
2022-11-21T08:51:39.878Z,5.47
2022-11-21T08:52:39.881Z,5.54
2022-11-21T08:53:39.898Z,5.54
2022-11-21T08:54:39.656Z,5.62
2022-11-21T08:55:39.983Z,5.5
2022-11-21T08:56:39.966Z,5.54
2022-11-21T08:57:39.700Z,5.62
2022-11-21T08:58:39.728Z,5.56
2022-11-21T08:59:39.997Z,5.46
2022-11-21T09:00:39.729Z,5.56
2022-11-21T09:01:39.659Z,5.54
2022-11-21T09:02:39.862Z,5.59
2022-11-21T09:03:39.795Z,5.57
2022-11-21T09:04:40.069Z,5.51
2022-11-21T09:05:39.817Z,5.53
2022-11-21T09:06:39.835Z,5.53
2022-11-21T09:07:39.814Z,5.59
2022-11-21T09:08:39.856Z,5.61
2022-11-21T09:09:39.869Z,5.61
2022-11-21T09:10:40.159Z,5.66
2022-11-21T09:11:40.226Z,5.65
2022-11-21T09:12:39.947Z,5.64
2022-11-21T09:13:40.188Z,5.61
2022-11-21T09:14:40.196Z,5.57
2022-11-21T09:15:39.949Z,5.64
2022-11-21T09:16:39.976Z,5.59
2022-11-21T09:17:39.985Z,5.59
2022-11-21T09:18:40.253Z,5.59
2022-11-21T09:19:40.014Z,5.69
2022-11-21T09:20:40.264Z,5.62
2022-11-21T09:21:40.032Z,5.66
2022-11-21T09:22:40.312Z,5.62
2022-11-21T09:23:40.329Z,5.75
2022-11-21T09:24:40.087Z,5.64
2022-11-21T09:25:40.370Z,5.72
2022-11-21T09:26:40.110Z,5.64
2022-11-21T09:27:40.177Z,5.72
2022-11-21T09:28:40.433Z,5.64
2022-11-21T09:29:40.414Z,5.69
2022-11-21T09:30:40.453Z,5.75
2022-11-21T09:31:39.927Z,5.68
2022-11-21T09:32:40.206Z,5.65
2022-11-21T09:33:40.482Z,5.68
2022-11-21T09:34:39.981Z,5.68
2022-11-21T09:35:39.998Z,5.71
2022-11-21T09:36:40.520Z,5.75
2022-11-21T09:37:40.541Z,5.66
2022-11-21T09:38:40.541Z,5.71
2022-11-21T09:39:40.296Z,5.72
2022-11-21T09:40:40.065Z,5.76
2022-11-21T09:41:40.621Z,5.76
2022-11-21T09:42:40.344Z,5.71
2022-11-21T09:43:40.908Z,5.8
2022-11-21T09:44:40.412Z,5.79
2022-11-21T09:45:40.374Z,5.62
2022-11-21T09:46:40.406Z,5.87
2022-11-21T09:47:40.669Z,5.79
2022-11-21T09:48:40.689Z,5.84
2022-11-21T09:49:40.699Z,5.82
2022-11-21T09:50:42.488Z,5.76
2022-11-21T09:51:40.729Z,5.8
2022-11-21T09:52:40.753Z,5.76
2022-11-21T09:53:40.503Z,5.79
2022-11-21T09:54:40.253Z,5.75
2022-11-21T09:55:40.528Z,5.82
2022-11-21T09:56:40.548Z,5.8
2022-11-21T09:57:40.831Z,5.82
2022-11-21T09:58:40.570Z,5.87
2022-11-21T09:59:40.677Z,5.79
2022-11-21T10:00:40.776Z,5.82
2022-11-21T10:01:40.957Z,5.93
2022-11-21T10:02:40.685Z,5.9
2022-11-21T10:03:40.657Z,5.83
2022-11-21T10:04:40.916Z,5.84
2022-11-21T10:05:40.929Z,5.82
2022-11-21T10:06:40.989Z,5.89
2022-11-21T10:07:40.892Z,5.9
2022-11-21T10:08:40.718Z,5.87
2022-11-21T10:09:40.748Z,5.89
2022-11-21T10:10:41.005Z,5.89
2022-11-21T10:11:40.760Z,5.91
2022-11-21T10:12:40.832Z,5.87
2022-11-21T10:13:41.058Z,5.91
2022-11-21T10:14:41.057Z,5.9
2022-11-21T10:15:41.131Z,5.87
2022-11-21T10:16:46.438Z,5.89
2022-11-21T10:17:41.124Z,5.91
2022-11-21T10:18:41.114Z,5.93
2022-11-21T10:19:40.614Z,5.9
2022-11-21T10:20:41.146Z,5.93
2022-11-21T10:21:41.155Z,5.89
2022-11-21T10:22:40.910Z,5.94
2022-11-21T10:23:40.981Z,5.86
2022-11-21T10:24:41.223Z,5.93
2022-11-21T10:25:41.213Z,5.9
2022-11-21T10:26:41.236Z,5.94
2022-11-21T10:27:40.992Z,5.9
2022-11-21T10:28:40.750Z,5.89
2022-11-21T10:29:41.019Z,5.93
2022-11-21T10:30:41.284Z,5.86
2022-11-21T10:31:41.368Z,5.89
2022-11-21T10:32:41.348Z,5.93
2022-11-21T10:33:41.073Z,5.94
2022-11-21T10:34:41.354Z,5.93
2022-11-21T10:35:41.379Z,5.93
2022-11-21T10:36:41.109Z,5.97
2022-11-21T10:37:40.873Z,5.93
2022-11-21T10:38:41.430Z,5.91
2022-11-21T10:39:41.426Z,5.89
2022-11-21T10:40:41.426Z,5.91
2022-11-21T10:41:41.444Z,5.93
2022-11-21T10:42:41.206Z,5.97
2022-11-21T10:43:41.481Z,6.01
2022-11-21T10:44:41.251Z,5.97
2022-11-21T10:45:41.249Z,6.01
2022-11-21T10:46:41.262Z,6.01
2022-11-21T10:47:41.600Z,5.93
2022-11-21T10:48:41.676Z,6.04
2022-11-21T10:49:41.313Z,5.94
2022-11-21T10:50:41.580Z,5.89
2022-11-21T10:51:41.598Z,5.97
2022-11-21T10:52:41.351Z,5.94
2022-11-21T10:53:41.619Z,5.94
2022-11-21T10:54:41.641Z,5.97
2022-11-21T10:55:41.415Z,5.98
2022-11-21T10:56:41.669Z,6.02
2022-11-21T10:57:41.674Z,5.87
2022-11-21T10:58:41.439Z,6.04
2022-11-21T10:59:41.450Z,5.99
2022-11-21T11:00:41.339Z,5.93
2022-11-21T11:01:41.228Z,5.93
2022-11-21T11:02:41.572Z,5.83
2022-11-21T11:03:43.640Z,5.94
2022-11-21T11:04:57.571Z,5.94
2022-11-21T11:05:49.310Z,5.89
2022-11-21T11:06:49.597Z,5.86
2022-11-21T11:07:50.054Z,5.93
2022-11-21T11:08:49.613Z,5.94
2022-11-21T11:09:49.628Z,5.98
2022-11-21T11:10:49.662Z,5.93
2022-11-21T11:11:50.647Z,5.98
2022-11-21T11:12:49.694Z,6.01
2022-11-21T11:13:53.082Z,5.98
2022-11-21T11:14:49.708Z,5.93
2022-11-21T11:15:49.982Z,6.01
2022-11-21T11:16:50.002Z,5.94
2022-11-21T11:17:50.523Z,5.98
2022-11-21T11:18:50.062Z,6.02
2022-11-21T11:19:50.743Z,6.05
2022-11-21T11:20:50.074Z,6.05
2022-11-21T11:21:50.086Z,6.04
2022-11-21T11:22:50.549Z,6.07
2022-11-21T11:23:50.085Z,5.99
2022-11-21T11:24:50.099Z,6.08
2022-11-21T11:25:50.347Z,6.01
2022-11-21T11:26:51.237Z,6.04
2022-11-21T11:27:49.627Z,6.07
2022-11-21T11:28:50.367Z,6.04
2022-11-21T11:29:50.171Z,6.07
2022-11-21T11:30:50.201Z,6.07
2022-11-21T11:31:50.683Z,6.07
2022-11-21T11:32:50.540Z,6.12
2022-11-21T11:33:50.234Z,6.05
2022-11-21T11:34:50.312Z,6.12
2022-11-21T11:35:50.005Z,6.08
2022-11-21T11:36:50.306Z,6.12
2022-11-21T11:37:50.292Z,6.14
2022-11-21T11:38:50.292Z,6.14
2022-11-21T11:39:50.347Z,6.11
2022-11-21T11:40:50.126Z,6.16
2022-11-21T11:41:50.346Z,6.09
2022-11-21T11:42:50.366Z,6.09
2022-11-21T11:43:50.376Z,6.16
2022-11-21T11:44:50.393Z,6.14
2022-11-21T11:45:51.745Z,6.09
2022-11-21T11:46:50.162Z,6.12
2022-11-21T11:47:58.679Z,6.07
2022-11-21T11:49:23.583Z,6.11
2022-11-21T11:49:50.207Z,6.04
2022-11-21T11:50:50.285Z,6.11
2022-11-21T11:51:51.863Z,6.09
2022-11-21T11:52:51.886Z,6.14
2022-11-21T11:53:51.781Z,6.17
2022-11-21T11:54:51.669Z,6.12
2022-11-21T11:55:51.572Z,6.22
2022-11-21T11:56:51.777Z,6.11
2022-11-21T11:57:51.640Z,6.24
2022-11-21T11:58:51.991Z,6.11
2022-11-21T11:59:51.884Z,6.26
2022-11-21T12:00:50.632Z,6.19
2022-11-21T12:01:50.844Z,6.16
2022-11-21T12:02:51.696Z,6.2
2022-11-21T12:03:58.228Z,6.19
2022-11-21T12:04:52.065Z,6.17
2022-11-21T12:05:51.864Z,6.2
2022-11-21T12:08:41.223Z,6.27
2022-11-21T12:08:53.228Z,6.3
2022-11-21T12:09:53.636Z,6.16
2022-11-21T12:10:52.962Z,6.27
2022-11-21T12:11:52.975Z,6.17
2022-11-21T12:12:54.452Z,6.27
2022-11-21T12:13:53.006Z,6.26
2022-11-21T12:14:52.491Z,6.17
2022-11-21T12:15:53.214Z,6.16
2022-11-21T12:16:52.788Z,6.24
2022-11-21T12:17:52.799Z,6.16
2022-11-21T12:18:53.081Z,6.26
2022-11-21T12:19:53.086Z,6.26
2022-11-21T12:20:53.099Z,6.26
2022-11-21T12:21:53.123Z,6.16
2022-11-21T12:22:53.139Z,6.24
2022-11-21T12:23:53.239Z,6.26
2022-11-21T12:24:52.928Z,6.16
2022-11-21T12:25:53.184Z,6.24
2022-11-21T12:26:52.935Z,6.24
2022-11-21T12:27:53.205Z,6.3
2022-11-21T12:28:52.957Z,6.26
2022-11-21T12:29:53.246Z,6.31
2022-11-21T12:30:53.262Z,6.26
2022-11-21T12:31:53.265Z,6.28
2022-11-21T12:32:53.028Z,6.24
2022-11-21T12:33:53.302Z,6.27
2022-11-21T12:34:53.052Z,6.3
2022-11-21T12:35:53.075Z,6.33
2022-11-21T12:36:53.083Z,6.27
2022-11-21T12:37:53.085Z,6.39
2022-11-21T12:38:53.475Z,6.27
2022-11-21T12:39:53.433Z,6.27
2022-11-21T12:40:53.420Z,6.3
2022-11-21T12:41:53.169Z,6.39
2022-11-21T12:42:53.197Z,6.24
2022-11-21T12:44:00.351Z,6.33
2022-11-21T12:44:53.192Z,6.33
2022-11-21T12:45:53.224Z,6.42
2022-11-21T12:46:53.229Z,6.38
2022-11-21T12:47:53.240Z,6.38
2022-11-21T12:48:53.520Z,6.39
2022-11-21T12:49:59.426Z,6.36
2022-11-21T12:50:53.548Z,6.39
2022-11-21T12:51:53.553Z,6.39
2022-11-21T12:52:53.063Z,6.46
2022-11-21T12:53:53.598Z,6.38
2022-11-21T12:54:54.485Z,6.39
2022-11-21T12:55:53.669Z,6.39
2022-11-21T12:56:54.538Z,6.36
2022-11-21T12:57:53.385Z,6.41
2022-11-21T12:58:53.495Z,6.36
2022-11-21T12:59:54.469Z,6.36
2022-11-21T13:00:53.960Z,6.44
2022-11-21T13:01:53.591Z,6.39
2022-11-21T13:02:54.773Z,6.33
2022-11-21T13:03:53.835Z,6.36
2022-11-21T13:04:53.746Z,6.39
2022-11-21T13:05:53.506Z,6.42
2022-11-21T13:06:53.791Z,6.36
2022-11-21T13:07:53.539Z,6.39
2022-11-21T13:08:53.978Z,6.38
2022-11-21T13:09:53.846Z,6.36
2022-11-21T13:10:53.835Z,6.36
2022-11-21T13:11:53.908Z,6.33
2022-11-21T13:12:53.633Z,6.33
2022-11-21T13:13:53.877Z,6.35
2022-11-21T13:14:53.682Z,6.33
2022-11-21T13:15:54.272Z,6.3
2022-11-21T13:16:53.665Z,6.28
2022-11-21T13:17:54.470Z,6.27
2022-11-21T13:18:53.692Z,6.27
2022-11-21T13:19:53.987Z,6.27
2022-11-21T13:20:53.726Z,6.26
2022-11-21T13:21:54.005Z,6.28